Time;durP1;ratioP1;P1;durP2;ratioP2;P2;SDS_P1;SDS_P2;PMS_P1;PMS_P2;Temp;Humidity;BMP_temperature;BMP_pressure;BME280_temperature;BME280_humidity;BME280_pressure;Samples;Min_cycle;Max_cycle;Signal;HPM_P1;HPM_P2
2024/01/31 00:00:08;;;;;;;4.30;3.50;;;7.30;99.90;;;;;;5114532;28;20573;-64
2024/01/31 00:02:35;;;;;;;4.63;3.53;;;7.30;99.90;;;;;;5114498;28;20251;-63
2024/01/31 00:05:03;;;;;;;4.30;3.45;;;7.30;99.90;;;;;;5114782;28;20200;-62
2024/01/31 00:07:30;;;;;;;4.95;3.85;;;7.30;99.90;;;;;;5114882;28;20207;-63
2024/01/31 00:09:56;;;;;;;4.38;3.00;;;7.30;99.90;;;;;;5115485;28;20203;-63
2024/01/31 00:12:23;;;;;;;4.50;3.15;;;7.30;99.90;;;;;;5115450;28;20242;-62
2024/01/31 00:14:51;;;;;;;3.40;2.55;;;7.40;99.90;;;;;;5116496;28;20199;-63
2024/01/31 00:17:18;;;;;;;2.30;2.10;;;7.40;99.90;;;;;;5115825;28;20222;-62
2024/01/31 00:19:45;;;;;;;3.90;2.22;;;7.30;99.90;;;;;;5116304;28;20385;-63
2024/01/31 00:22:12;;;;;;;2.20;2.00;;;7.30;99.90;;;;;;5115145;28;20219;-63
2024/01/31 00:24:38;;;;;;;3.25;2.22;;;7.20;99.90;;;;;;5114861;28;20290;-62
2024/01/31 00:27:05;;;;;;;3.13;1.92;;;7.10;99.90;;;;;;5114474;28;20207;-63
2024/01/31 00:29:32;;;;;;;3.10;1.88;;;7.00;99.90;;;;;;5117970;28;20519;-63
2024/01/31 00:32:00;;;;;;;3.25;2.10;;;7.00;99.90;;;;;;5118932;28;20226;-63
2024/01/31 00:34:27;;;;;;;4.72;2.30;;;6.80;99.90;;;;;;5119106;28;20281;-63
2024/01/31 00:36:54;;;;;;;3.38;1.90;;;6.70;99.90;;;;;;5119227;28;20195;-62
2024/01/31 00:39:22;;;;;;;3.92;2.22;;;6.70;99.90;;;;;;5119830;28;20222;-63
2024/01/31 00:41:50;;;;;;;3.83;2.63;;;6.60;99.90;;;;;;5119362;28;20247;-63
2024/01/31 00:44:17;;;;;;;2.85;2.20;;;6.60;99.90;;;;;;5118801;28;20195;-63
2024/01/31 00:46:44;;;;;;;4.97;2.08;;;6.60;99.90;;;;;;5118878;28;20199;-63
2024/01/31 00:49:12;;;;;;;4.22;2.50;;;6.50;99.90;;;;;;5119007;28;20197;-62
2024/01/31 00:51:43;;;;;;;2.70;2.50;;;6.50;99.90;;;;;;5118997;28;20246;-62
2024/01/31 00:54:10;;;;;;;3.55;2.20;;;6.50;99.90;;;;;;5119389;28;20217;-62
2024/01/31 00:56:37;;;;;;;3.95;2.42;;;6.50;99.90;;;;;;5119709;28;20203;-62
2024/01/31 00:59:03;;;;;;;3.05;2.28;;;6.60;99.90;;;;;;5119175;28;20219;-61
2024/01/31 01:01:30;;;;;;;3.00;2.10;;;6.50;99.90;;;;;;5119307;28;20224;-63
2024/01/31 01:03:57;;;;;;;4.15;2.40;;;6.60;99.90;;;;;;5119898;28;20361;-63
2024/01/31 01:06:25;;;;;;;2.85;2.17;;;6.60;99.90;;;;;;5119055;28;20769;-63
2024/01/31 01:08:52;;;;;;;2.10;1.90;;;6.60;99.90;;;;;;5118938;28;20563;-63
2024/01/31 01:11:19;;;;;;;2.00;1.80;;;6.60;99.90;;;;;;5118879;28;20258;-62
2024/01/31 01:13:47;;;;;;;2.10;1.45;;;6.60;99.90;;;;;;5123416;28;20263;-62
2024/01/31 01:16:13;;;;;;;2.72;1.90;;;6.60;99.90;;;;;;5121066;28;20196;-62
2024/01/31 01:18:40;;;;;;;3.85;2.00;;;6.60;99.90;;;;;;5118758;28;20314;-62
2024/01/31 01:21:07;;;;;;;3.15;1.40;;;6.60;99.90;;;;;;5118669;28;20219;-63
2024/01/31 01:23:35;;;;;;;2.75;1.65;;;6.60;99.90;;;;;;5119232;28;20210;-62
2024/01/31 01:26:02;;;;;;;6.57;1.63;;;6.60;99.90;;;;;;5119106;28;20669;-62
2024/01/31 01:28:29;;;;;;;4.00;2.05;;;6.60;99.90;;;;;;5118431;28;20687;-62
2024/01/31 01:30:56;;;;;;;4.55;2.00;;;6.60;99.90;;;;;;5117717;28;20204;-63
2024/01/31 01:33:22;;;;;;;4.63;2.83;;;6.60;99.90;;;;;;5117677;28;20206;-63
2024/01/31 01:35:49;;;;;;;2.20;2.00;;;6.60;99.90;;;;;;5118079;28;20203;-63
2024/01/31 01:38:16;;;;;;;3.40;2.08;;;6.50;99.90;;;;;;5118736;28;20228;-62
2024/01/31 01:40:45;;;;;;;2.53;1.83;;;6.50;99.90;;;;;;5116709;28;20665;-62
2024/01/31 01:43:17;;;;;;;3.45;2.40;;;6.50;99.90;;;;;;5117601;28;20599;-64
2024/01/31 01:45:44;;;;;;;3.72;2.60;;;6.40;99.90;;;;;;5117636;28;20207;-62
2024/01/31 01:48:11;;;;;;;2.42;2.20;;;6.30;99.90;;;;;;5117402;28;20700;-63
2024/01/31 01:50:39;;;;;;;3.10;2.00;;;6.30;99.90;;;;;;5117000;28;20203;-63
2024/01/31 01:53:06;;;;;;;3.20;1.67;;;6.20;99.90;;;;;;5117129;28;20219;-62
2024/01/31 01:55:33;;;;;;;4.40;2.20;;;6.20;99.90;;;;;;5116952;28;20761;-63
2024/01/31 01:58:01;;;;;;;5.22;2.42;;;6.20;99.90;;;;;;5117820;28;20588;-63
2024/01/31 02:00:28;;;;;;;3.45;2.03;;;6.10;99.90;;;;;;5117601;28;20256;-62
2024/01/31 02:02:55;;;;;;;2.97;2.10;;;6.10;99.90;;;;;;5117586;28;20254;-63
2024/01/31 02:05:22;;;;;;;3.17;2.83;;;6.10;99.90;;;;;;5117348;28;20206;-62
2024/01/31 02:07:49;;;;;;;3.30;2.40;;;6.10;99.90;;;;;;5117906;28;20294;-62
2024/01/31 02:10:16;;;;;;;4.40;2.38;;;6.00;99.90;;;;;;5117039;28;20204;-63
2024/01/31 02:12:42;;;;;;;3.28;2.10;;;6.00;99.90;;;;;;5117053;28;20224;-63
2024/01/31 02:15:11;;;;;;;3.30;2.33;;;5.90;99.90;;;;;;5116793;28;20196;-62
2024/01/31 02:17:38;;;;;;;3.85;2.45;;;5.90;99.90;;;;;;5117456;28;20448;-63
2024/01/31 02:20:05;;;;;;;2.67;2.15;;;5.90;99.90;;;;;;5124749;28;20223;-64
2024/01/31 02:22:34;;;;;;;2.97;2.60;;;5.90;99.90;;;;;;5121288;28;20226;-63
2024/01/31 02:25:01;;;;;;;2.92;1.90;;;5.90;99.90;;;;;;5122791;28;20218;-63
2024/01/31 02:27:28;;;;;;;2.10;1.58;;;5.90;99.90;;;;;;5125483;28;20267;-62
2024/01/31 02:29:55;;;;;;;2.15;1.35;;;5.90;99.90;;;;;;5129236;28;20202;-63
2024/01/31 02:32:21;;;;;;;4.38;1.40;;;5.90;99.90;;;;;;5120337;28;20311;-63
2024/01/31 02:34:48;;;;;;;1.42;1.15;;;5.90;99.90;;;;;;5115801;28;20573;-62
2024/01/31 02:37:15;;;;;;;0.80;0.80;;;5.90;99.90;;;;;;5115453;28;20206;-63
2024/01/31 02:39:43;;;;;;;1.45;1.02;;;5.90;99.90;;;;;;5115317;28;20226;-63
2024/01/31 02:42:10;;;;;;;1.85;1.20;;;5.90;99.90;;;;;;5114858;28;20227;-62
2024/01/31 02:44:36;;;;;;;1.38;0.95;;;5.80;99.90;;;;;;5114877;28;20677;-61
2024/01/31 02:47:03;;;;;;;1.25;1.10;;;5.80;99.90;;;;;;5115461;28;20206;-63
2024/01/31 02:49:30;;;;;;;2.10;1.40;;;5.70;99.90;;;;;;5115135;28;20195;-63
2024/01/31 02:51:57;;;;;;;7.15;1.30;;;5.70;99.90;;;;;;5113881;28;20223;-63
2024/01/31 02:54:24;;;;;;;1.23;1.15;;;5.70;99.90;;;;;;5115164;28;20200;-63
2024/01/31 02:56:52;;;;;;;2.13;1.08;;;5.70;99.90;;;;;;5115495;28;20199;-62
2024/01/31 02:59:20;;;;;;;2.35;0.98;;;5.70;99.90;;;;;;5114803;28;20712;-62
2024/01/31 03:01:47;;;;;;;5.05;1.00;;;5.70;99.90;;;;;;5115507;28;20227;-62
2024/01/31 03:04:14;;;;;;;2.20;1.38;;;5.70;99.90;;;;;;5114755;28;20262;-62
2024/01/31 03:06:40;;;;;;;2.67;0.95;;;5.70;99.90;;;;;;5114722;28;20210;-62
2024/01/31 03:09:09;;;;;;;2.55;1.08;;;5.70;99.90;;;;;;5114772;28;20196;-63
2024/01/31 03:11:36;;;;;;;3.63;0.93;;;5.70;99.90;;;;;;5114763;28;20310;-63
2024/01/31 03:14:04;;;;;;;1.65;1.00;;;5.70;99.90;;;;;;5114734;28;20199;-63
2024/01/31 03:16:30;;;;;;;2.20;1.05;;;5.80;99.90;;;;;;5114529;28;20200;-61
2024/01/31 03:18:58;;;;;;;0.93;0.90;;;5.70;99.90;;;;;;5114392;28;20323;-63
2024/01/31 03:21:25;;;;;;;1.38;1.00;;;5.80;99.90;;;;;;5114601;28;20220;-63
2024/01/31 03:23:52;;;;;;;0.82;0.75;;;5.80;99.90;;;;;;5114346;28;20204;-63
2024/01/31 03:26:19;;;;;;;1.30;1.08;;;5.70;99.90;;;;;;5113982;28;20664;-63
2024/01/31 03:28:45;;;;;;;1.15;0.90;;;5.70;99.90;;;;;;5115764;28;20198;-63
2024/01/31 03:31:14;;;;;;;2.95;1.08;;;5.70;99.90;;;;;;5115287;28;20220;-63
2024/01/31 03:33:40;;;;;;;3.35;1.60;;;5.70;99.90;;;;;;5114425;28;20204;-62
2024/01/31 03:36:10;;;;;;;1.08;0.98;;;5.80;99.90;;;;;;5114099;28;20207;-62
2024/01/31 03:38:37;;;;;;;2.00;1.10;;;5.80;99.90;;;;;;5114120;28;20219;-62
2024/01/31 03:41:05;;;;;;;2.58;1.60;;;5.80;99.90;;;;;;5114216;28;20224;-62
2024/01/31 03:43:31;;;;;;;3.40;1.27;;;5.80;99.90;;;;;;5114458;28;20203;-62
2024/01/31 03:46:00;;;;;;;3.83;1.70;;;5.70;99.90;;;;;;5114053;28;20665;-60
2024/01/31 03:48:28;;;;;;;2.15;1.10;;;5.70;99.90;;;;;;5114301;28;20321;-63
2024/01/31 03:50:55;;;;;;;3.05;2.05;;;5.70;99.90;;;;;;5114227;28;20196;-63
2024/01/31 03:53:21;;;;;;;2.15;1.45;;;5.70;99.90;;;;;;5114241;28;20195;-63
2024/01/31 03:55:48;;;;;;;2.47;1.15;;;5.60;99.90;;;;;;5114411;28;20200;-63
2024/01/31 03:58:15;;;;;;;3.15;1.40;;;5.60;99.90;;;;;;5114327;28;20203;-63
2024/01/31 04:00:42;;;;;;;3.25;1.60;;;5.60;99.90;;;;;;5114155;28;20295;-62
2024/01/31 04:03:09;;;;;;;3.75;1.05;;;5.50;99.90;;;;;;5113627;28;20703;-63
2024/01/31 04:05:38;;;;;;;2.30;1.17;;;5.40;99.90;;;;;;5114048;28;20195;-62
2024/01/31 04:08:05;;;;;;;2.25;1.10;;;5.40;99.90;;;;;;5114064;28;20210;-63
2024/01/31 04:13:04;;;;;;;3.38;1.20;;;5.20;99.90;;;;;;5109168;27;1235638;-62
2024/01/31 04:15:31;;;;;;;2.15;1.55;;;5.20;99.90;;;;;;5152550;27;20664;-63
2024/01/31 04:17:59;;;;;;;2.20;1.40;;;5.10;99.90;;;;;;5152739;27;20285;-63
2024/01/31 04:20:26;;;;;;;3.53;1.70;;;5.00;99.90;;;;;;5152990;27;20212;-63
2024/01/31 04:22:53;;;;;;;1.55;1.30;;;5.00;99.90;;;;;;5152723;27;20222;-63
2024/01/31 04:25:20;;;;;;;2.28;1.23;;;5.00;99.90;;;;;;5153349;27;20194;-63
2024/01/31 04:27:46;;;;;;;3.30;1.52;;;5.00;99.90;;;;;;5153037;27;20559;-62
2024/01/31 04:30:15;;;;;;;2.65;1.50;;;5.00;99.90;;;;;;5152810;27;20549;-62
2024/01/31 04:32:42;;;;;;;3.35;1.40;;;5.00;99.90;;;;;;5152536;27;20312;-63
2024/01/31 04:35:09;;;;;;;2.53;1.80;;;5.00;99.90;;;;;;5152491;27;20194;-63
2024/01/31 04:37:36;;;;;;;1.52;1.42;;;4.90;99.90;;;;;;5152662;27;20617;-63
2024/01/31 04:40:04;;;;;;;3.63;1.55;;;4.90;99.90;;;;;;5152530;27;20597;-62
2024/01/31 04:42:31;;;;;;;2.83;1.70;;;4.90;99.90;;;;;;5152028;27;20218;-62
2024/01/31 04:44:58;;;;;;;1.27;1.17;;;4.90;99.90;;;;;;5152310;27;20285;-62
2024/01/31 04:47:26;;;;;;;8.98;1.70;;;4.90;99.90;;;;;;5152146;27;20575;-61
2024/01/31 04:49:53;;;;;;;5.05;1.80;;;4.90;99.90;;;;;;5152262;27;20230;-63
2024/01/31 04:52:20;;;;;;;3.08;2.10;;;4.90;99.90;;;;;;5153109;27;20564;-62
2024/01/31 04:54:46;;;;;;;1.60;1.20;;;4.90;99.90;;;;;;5152888;27;20561;-64
2024/01/31 04:57:13;;;;;;;4.63;2.10;;;4.90;99.90;;;;;;5152011;27;20576;-62
2024/01/31 04:59:42;;;;;;;2.42;1.92;;;4.90;99.90;;;;;;5151411;27;20566;-62
2024/01/31 05:02:09;;;;;;;3.50;1.60;;;5.00;99.90;;;;;;5151656;27;20825;-62
2024/01/31 05:04:37;;;;;;;1.95;1.23;;;5.00;99.90;;;;;;5152104;27;20199;-63
2024/01/31 05:07:04;;;;;;;2.45;1.40;;;5.00;99.90;;;;;;5152223;27;20206;-64
2024/01/31 05:09:32;;;;;;;3.63;1.58;;;5.00;99.90;;;;;;5152350;27;20195;-62
2024/01/31 05:11:59;;;;;;;2.20;1.38;;;4.90;99.90;;;;;;5152552;27;20237;-63
2024/01/31 05:14:26;;;;;;;1.67;1.40;;;5.00;99.90;;;;;;5152583;27;20256;-62
2024/01/31 05:16:52;;;;;;;2.33;1.20;;;5.00;99.90;;;;;;5153160;27;20277;-62
2024/01/31 05:19:19;;;;;;;2.25;1.30;;;4.90;99.90;;;;;;5152174;27;20198;-62
2024/01/31 05:21:48;;;;;;;2.17;1.30;;;4.90;99.90;;;;;;5151620;27;20217;-62
2024/01/31 05:24:16;;;;;;;6.47;2.22;;;4.90;99.90;;;;;;5139294;27;20203;-62
2024/01/31 05:26:44;;;;;;;4.57;1.38;;;4.90;99.90;;;;;;5138205;27;20233;-63
2024/01/31 05:29:10;;;;;;;1.63;1.20;;;4.90;99.90;;;;;;5138169;27;20202;-63
2024/01/31 05:31:37;;;;;;;2.13;1.58;;;4.90;99.90;;;;;;5137322;27;20697;-63
2024/01/31 05:34:04;;;;;;;1.40;1.30;;;4.90;99.90;;;;;;5138076;27;20205;-62
2024/01/31 05:36:32;;;;;;;1.50;1.40;;;4.90;99.90;;;;;;5137908;27;20202;-62
2024/01/31 05:39:00;;;;;;;3.30;1.40;;;4.90;99.90;;;;;;5137608;27;20203;-63
2024/01/31 05:41:27;;;;;;;2.92;1.63;;;4.90;99.90;;;;;;5137588;27;20215;-62
2024/01/31 05:43:54;;;;;;;3.30;1.45;;;4.90;99.90;;;;;;5137430;27;20203;-61
2024/01/31 05:46:20;;;;;;;1.30;1.10;;;4.90;99.90;;;;;;5136913;27;20195;-61
2024/01/31 05:48:48;;;;;;;2.55;1.20;;;4.90;99.90;;;;;;5137229;27;20573;-62
2024/01/31 05:51:15;;;;;;;1.50;1.30;;;4.90;99.90;;;;;;5138818;27;20591;-62
2024/01/31 05:53:42;;;;;;;3.40;1.50;;;5.00;99.90;;;;;;5137444;27;20195;-62
2024/01/31 05:56:10;;;;;;;6.45;1.27;;;5.00;99.90;;;;;;5137315;27;20199;-62
2024/01/31 05:58:37;;;;;;;1.77;1.17;;;4.90;99.90;;;;;;5138251;27;20205;-63
2024/01/31 06:01:04;;;;;;;3.42;1.13;;;4.90;99.90;;;;;;5138320;27;20525;-61
2024/01/31 06:03:30;;;;;;;6.07;1.30;;;4.90;99.90;;;;;;5137563;27;20198;-63
2024/01/31 06:05:58;;;;;;;1.90;1.00;;;4.90;99.90;;;;;;5137268;27;20202;-62
2024/01/31 06:08:25;;;;;;;2.10;1.10;;;4.90;99.90;;;;;;5138192;27;20203;-62
2024/01/31 06:10:58;;;;;;;1.25;1.15;;;4.90;99.90;;;;;;5137332;27;20688;-63
2024/01/31 06:13:26;;;;;;;1.98;1.13;;;4.90;99.90;;;;;;5137815;27;20299;-62
2024/01/31 06:15:53;;;;;;;2.08;1.00;;;4.90;99.90;;;;;;5138175;27;20203;-62
2024/01/31 06:18:20;;;;;;;2.95;0.93;;;4.90;99.90;;;;;;5145513;27;20218;-62
2024/01/31 06:20:46;;;;;;;2.53;1.08;;;5.00;99.90;;;;;;5146599;27;20290;-62
2024/01/31 06:23:13;;;;;;;2.10;0.95;;;5.00;99.90;;;;;;5146648;27;20203;-62
2024/01/31 06:25:40;;;;;;;2.65;0.80;;;5.00;99.90;;;;;;5154166;27;20203;-63
2024/01/31 06:28:07;;;;;;;3.25;1.23;;;5.00;99.90;;;;;;5151289;27;20209;-62
2024/01/31 06:30:43;;;;;;;2.70;1.08;;;5.00;99.90;;;;;;5143075;27;20199;-63
2024/01/31 06:33:10;;;;;;;1.65;1.00;;;5.00;99.90;;;;;;5137733;27;20270;-62
2024/01/31 06:35:38;;;;;;;1.00;0.85;;;5.00;99.90;;;;;;5137484;27;20216;-63
2024/01/31 06:38:05;;;;;;;1.98;0.95;;;5.00;99.90;;;;;;5136897;27;20665;-62
2024/01/31 06:40:32;;;;;;;1.58;1.20;;;5.00;99.90;;;;;;5137680;27;20587;-63
2024/01/31 06:42:59;;;;;;;3.00;1.17;;;5.00;99.90;;;;;;5138729;27;20584;-62
2024/01/31 06:45:26;;;;;;;3.72;1.38;;;5.00;99.90;;;;;;5139612;27;20201;-62
2024/01/31 06:47:55;;;;;;;1.65;1.13;;;5.00;99.90;;;;;;5141118;27;20203;-61
2024/01/31 06:50:22;;;;;;;5.07;1.23;;;5.00;99.90;;;;;;5139752;27;20199;-61
2024/01/31 06:52:49;;;;;;;2.40;1.30;;;5.00;99.90;;;;;;5137414;27;20223;-63
2024/01/31 06:55:16;;;;;;;1.95;1.00;;;5.00;99.90;;;;;;5137848;27;20203;-63
2024/01/31 06:57:43;;;;;;;1.85;1.10;;;5.00;99.90;;;;;;5137106;27;20630;-62
2024/01/31 07:00:11;;;;;;;1.98;1.10;;;5.00;99.90;;;;;;5137354;27;20366;-62
2024/01/31 07:02:38;;;;;;;0.80;0.70;;;5.00;99.90;;;;;;5136321;27;20214;-63
2024/01/31 07:05:07;;;;;;;1.67;1.02;;;5.00;99.90;;;;;;5138029;27;20199;-63
2024/01/31 07:07:34;;;;;;;3.45;1.38;;;5.00;99.90;;;;;;5139408;27;20195;-63
2024/01/31 07:10:01;;;;;;;3.00;1.25;;;5.00;99.90;;;;;;5140362;27;20203;-62
2024/01/31 07:12:27;;;;;;;1.05;0.95;;;5.10;99.90;;;;;;5138412;27;20273;-62
2024/01/31 07:14:54;;;;;;;1.42;1.02;;;5.00;99.90;;;;;;5136323;27;20205;-63
2024/01/31 07:17:22;;;;;;;1.88;1.05;;;5.10;99.90;;;;;;5136376;27;20199;-63
2024/01/31 07:19:49;;;;;;;2.17;1.30;;;5.10;99.90;;;;;;5136872;27;20207;-62
2024/01/31 07:22:17;;;;;;;2.00;0.80;;;5.10;99.90;;;;;;5135724;27;20215;-63
2024/01/31 07:24:45;;;;;;;1.60;1.10;;;5.10;99.90;;;;;;5136232;27;20210;-62
2024/01/31 07:27:11;;;;;;;1.30;1.15;;;5.10;99.90;;;;;;5136685;27;20199;-62
2024/01/31 07:29:38;;;;;;;1.63;0.90;;;5.10;99.90;;;;;;5136065;27;20368;-62
2024/01/31 07:32:06;;;;;;;2.03;1.05;;;5.10;99.90;;;;;;5135505;27;20223;-62
2024/01/31 07:34:32;;;;;;;1.63;1.00;;;5.10;99.90;;;;;;5135654;27;20201;-63
2024/01/31 07:36:59;;;;;;;3.08;1.20;;;5.10;99.90;;;;;;5135918;27;20198;-62
2024/01/31 07:39:27;;;;;;;1.60;0.95;;;5.10;99.90;;;;;;5135334;27;20657;-62
2024/01/31 07:41:54;;;;;;;2.30;1.10;;;5.20;99.90;;;;;;5135221;27;20661;-62
2024/01/31 07:44:21;;;;;;;1.80;0.93;;;5.10;99.90;;;;;;5135928;27;20248;-61
2024/01/31 07:46:48;;;;;;;1.88;1.25;;;5.20;99.90;;;;;;5135383;27;20203;-61
2024/01/31 07:49:15;;;;;;;1.88;1.10;;;5.20;99.90;;;;;;5135018;27;20539;-61
2024/01/31 07:51:43;;;;;;;0.95;0.88;;;5.20;99.90;;;;;;5135366;27;20223;-61
2024/01/31 07:54:10;;;;;;;1.70;0.93;;;5.20;99.90;;;;;;5135006;27;20223;-62
2024/01/31 07:56:38;;;;;;;4.20;1.40;;;5.20;99.90;;;;;;5135479;27;20200;-61
2024/01/31 07:59:06;;;;;;;2.03;1.27;;;5.20;99.90;;;;;;5134748;27;20203;-62
2024/01/31 08:01:33;;;;;;;2.42;1.75;;;5.30;99.90;;;;;;5134605;27;20226;-62
2024/01/31 08:04:00;;;;;;;1.52;1.40;;;5.30;99.90;;;;;;5135441;27;20267;-62
2024/01/31 08:06:27;;;;;;;1.48;1.10;;;5.30;99.90;;;;;;5135197;27;20206;-62
2024/01/31 08:08:53;;;;;;;3.45;1.77;;;5.30;99.90;;;;;;5134941;27;20203;-62
2024/01/31 08:11:20;;;;;;;3.95;1.73;;;5.30;99.90;;;;;;5134713;28;20314;-62
2024/01/31 08:13:48;;;;;;;4.07;1.60;;;5.40;99.90;;;;;;5134850;28;20207;-62
2024/01/31 08:16:15;;;;;;;0.80;0.73;;;5.40;99.90;;;;;;5135366;28;20199;-61
2024/01/31 08:18:42;;;;;;;2.55;1.20;;;5.40;99.90;;;;;;5135064;28;20195;-62
2024/01/31 08:21:09;;;;;;;1.85;1.33;;;5.40;99.90;;;;;;5135687;28;20219;-61
2024/01/31 08:23:36;;;;;;;1.00;0.90;;;5.40;99.90;;;;;;5134384;28;20769;-61
2024/01/31 08:26:03;;;;;;;2.22;1.30;;;5.40;99.90;;;;;;5134720;28;20678;-62
2024/01/31 08:28:30;;;;;;;1.35;1.25;;;5.40;99.90;;;;;;5135222;28;20241;-61
2024/01/31 08:30:58;;;;;;;3.13;1.08;;;5.40;99.90;;;;;;5134370;28;20207;-62
2024/01/31 08:33:25;;;;;;;4.60;1.42;;;5.50;99.90;;;;;;5134677;28;20215;-61
2024/01/31 08:35:52;;;;;;;3.08;1.90;;;5.50;99.90;;;;;;5135262;28;20195;-61
2024/01/31 08:38:18;;;;;;;4.22;0.98;;;5.50;99.90;;;;;;5134626;28;20206;-62
2024/01/31 08:40:45;;;;;;;3.17;1.35;;;5.50;99.90;;;;;;5134581;28;20199;-62
2024/01/31 08:43:12;;;;;;;1.13;1.02;;;5.50;99.90;;;;;;5135061;28;20195;-61
2024/01/31 08:45:39;;;;;;;2.05;1.15;;;5.50;99.90;;;;;;5134891;28;20627;-61
2024/01/31 08:48:08;;;;;;;2.70;1.05;;;5.50;99.90;;;;;;5135221;28;20199;-61
2024/01/31 08:50:34;;;;;;;2.03;1.50;;;5.50;99.90;;;;;;5134295;28;20576;-61
2024/01/31 08:53:01;;;;;;;2.08;1.50;;;5.50;99.90;;;;;;5134715;28;20688;-62
2024/01/31 08:55:28;;;;;;;2.30;1.85;;;5.60;99.90;;;;;;5134452;28;20203;-62
2024/01/31 08:57:55;;;;;;;2.13;1.85;;;5.60;99.90;;;;;;5134779;27;20203;-62
2024/01/31 09:00:22;;;;;;;4.30;1.60;;;5.60;99.90;;;;;;5139319;27;20199;-62
2024/01/31 09:02:48;;;;;;;2.40;1.40;;;5.60;99.90;;;;;;5140282;27;20225;-62
2024/01/31 09:05:17;;;;;;;2.13;1.70;;;5.60;99.90;;;;;;5139681;27;20206;-62
2024/01/31 09:07:43;;;;;;;3.75;2.05;;;5.60;99.90;;;;;;5138636;27;20206;-61
2024/01/31 09:10:11;;;;;;;1.90;1.73;;;5.60;99.90;;;;;;5138929;27;20221;-61
2024/01/31 09:12:38;;;;;;;3.30;2.05;;;5.70;99.90;;;;;;5138536;27;20222;-62
2024/01/31 09:15:05;;;;;;;3.13;2.00;;;5.70;99.90;;;;;;5138526;27;20206;-61
2024/01/31 09:17:32;;;;;;;4.15;2.13;;;5.70;99.90;;;;;;5138738;27;20210;-62
2024/01/31 09:19:58;;;;;;;3.00;2.03;;;5.70;99.90;;;;;;5138785;27;20206;-60
2024/01/31 09:22:27;;;;;;;2.65;1.73;;;5.70;99.90;;;;;;5139322;27;20221;-62
2024/01/31 09:24:53;;;;;;;4.30;2.80;;;5.70;99.90;;;;;;5138589;27;20239;-60
2024/01/31 09:27:20;;;;;;;2.42;1.75;;;5.70;99.90;;;;;;5139552;27;20202;-60
2024/01/31 09:29:47;;;;;;;3.45;2.25;;;5.70;99.90;;;;;;5138503;27;20201;-60
2024/01/31 09:32:14;;;;;;;2.28;2.08;;;5.70;99.90;;;;;;5137780;27;20272;-61
2024/01/31 09:34:41;;;;;;;6.25;1.88;;;5.60;99.90;;;;;;5139394;27;20596;-61
2024/01/31 09:37:08;;;;;;;1.75;1.60;;;5.60;99.90;;;;;;5138635;27;20195;-61
2024/01/31 09:39:36;;;;;;;2.70;1.70;;;5.60;99.90;;;;;;5138604;27;20206;-59
2024/01/31 09:42:03;;;;;;;1.95;1.60;;;5.60;99.90;;;;;;5138186;27;20241;-60
2024/01/31 09:44:31;;;;;;;2.15;1.55;;;5.60;99.90;;;;;;5138107;27;20202;-61
2024/01/31 09:46:59;;;;;;;2.67;1.70;;;5.60;99.90;;;;;;5137982;27;20650;-61
2024/01/31 09:49:26;;;;;;;2.13;1.88;;;5.70;99.90;;;;;;5138214;27;20201;-61
2024/01/31 09:51:58;;;;;;;2.13;1.70;;;5.60;99.90;;;;;;5138157;27;20226;-58
2024/01/31 09:54:26;;;;;;;3.78;1.90;;;5.60;99.90;;;;;;5138476;27;20211;-60
2024/01/31 09:56:55;;;;;;;4.28;1.83;;;5.60;99.90;;;;;;5139785;27;20201;-59
2024/01/31 09:59:22;;;;;;;2.30;1.83;;;5.70;99.90;;;;;;5140912;27;20545;-60
2024/01/31 10:01:52;;;;;;;3.33;1.63;;;5.70;99.90;;;;;;5140738;27;20233;-60
2024/01/31 10:04:19;;;;;;;6.05;1.70;;;5.70;99.90;;;;;;5144166;27;20232;-59
2024/01/31 10:06:46;;;;;;;3.17;1.50;;;5.80;99.90;;;;;;5148076;27;20195;-61
2024/01/31 10:09:14;;;;;;;2.22;1.92;;;5.80;99.90;;;;;;5149301;27;20226;-61
2024/01/31 10:11:46;;;;;;;3.70;2.00;;;5.80;99.90;;;;;;5150846;27;20318;-61
2024/01/31 10:14:14;;;;;;;3.53;1.80;;;5.90;99.90;;;;;;5149070;27;20649;-61
2024/01/31 10:16:42;;;;;;;2.20;1.73;;;5.90;99.90;;;;;;5142992;27;20602;-62
2024/01/31 10:19:08;;;;;;;1.75;1.65;;;6.00;99.90;;;;;;5137869;27;20259;-63
2024/01/31 10:21:35;;;;;;;2.80;1.70;;;6.00;99.90;;;;;;5137198;27;20306;-62
2024/01/31 10:24:02;;;;;;;2.63;1.73;;;6.00;99.90;;;;;;5136920;27;20656;-62
2024/01/31 10:26:30;;;;;;;2.42;1.58;;;6.10;99.90;;;;;;5139400;27;20376;-61
2024/01/31 10:28:58;;;;;;;2.15;1.95;;;6.00;99.90;;;;;;5137679;27;20290;-62
2024/01/31 10:31:26;;;;;;;1.90;1.70;;;6.00;99.90;;;;;;5137171;27;20273;-61
2024/01/31 10:33:54;;;;;;;2.35;1.80;;;6.00;99.90;;;;;;5138520;27;20227;-61
2024/01/31 10:36:22;;;;;;;2.78;1.75;;;6.00;99.90;;;;;;5138961;27;20243;-61
2024/01/31 10:38:50;;;;;;;3.58;2.10;;;6.10;99.90;;;;;;5137998;27;20202;-62
2024/01/31 10:41:19;;;;;;;2.42;1.77;;;6.10;99.90;;;;;;5137764;27;20310;-62
2024/01/31 10:43:48;;;;;;;1.50;1.40;;;6.10;99.90;;;;;;5136845;27;20239;-62
2024/01/31 10:46:15;;;;;;;2.20;1.50;;;6.20;99.90;;;;;;5137549;27;20202;-62
2024/01/31 10:48:43;;;;;;;1.85;1.75;;;6.20;99.90;;;;;;5138533;27;20219;-62
2024/01/31 10:51:12;;;;;;;3.10;1.48;;;6.20;99.90;;;;;;5136644;27;20223;-61
2024/01/31 10:53:40;;;;;;;2.15;1.50;;;6.30;99.90;;;;;;5136655;27;20211;-62
2024/01/31 10:56:09;;;;;;;2.33;1.30;;;6.30;99.90;;;;;;5137122;27;20195;-62
2024/01/31 10:58:37;;;;;;;2.28;1.50;;;6.30;99.90;;;;;;5136796;27;20210;-62
2024/01/31 11:01:05;;;;;;;2.92;1.55;;;6.30;99.90;;;;;;5136081;27;20226;-60
2024/01/31 11:03:32;;;;;;;2.35;1.55;;;6.30;99.90;;;;;;5137015;27;20241;-61
2024/01/31 11:06:00;;;;;;;3.85;2.15;;;6.30;99.90;;;;;;5136147;27;20211;-61
2024/01/31 11:08:27;;;;;;;2.30;1.38;;;6.30;99.90;;;;;;5135917;27;20199;-62
2024/01/31 11:10:54;;;;;;;2.20;1.70;;;6.30;99.90;;;;;;5135396;27;20619;-60
2024/01/31 11:13:21;;;;;;;2.95;1.60;;;6.30;99.90;;;;;;5136006;27;20225;-61
2024/01/31 11:15:48;;;;;;;2.08;1.50;;;6.30;99.90;;;;;;5135343;27;20198;-59
2024/01/31 11:18:15;;;;;;;1.60;1.50;;;6.20;99.90;;;;;;5135863;27;20203;-61
2024/01/31 11:20:46;;;;;;;2.90;2.40;;;6.20;99.90;;;;;;5135463;27;20230;-61
2024/01/31 11:23:16;;;;;;;2.10;1.90;;;6.20;99.90;;;;;;5136701;27;20184;-61
2024/01/31 11:25:43;;;;;;;2.90;1.83;;;6.20;99.90;;;;;;5141789;27;20703;-60
2024/01/31 11:28:12;;;;;;;1.80;1.70;;;6.20;99.90;;;;;;5142649;27;20212;-62
2024/01/31 11:30:40;;;;;;;1.70;1.55;;;6.20;99.90;;;;;;5140306;27;20195;-60
2024/01/31 11:33:08;;;;;;;2.38;1.85;;;6.20;99.90;;;;;;5141403;27;20223;-61
2024/01/31 11:35:35;;;;;;;2.70;2.08;;;6.10;99.90;;;;;;5149919;27;20226;-61
2024/01/31 11:38:02;;;;;;;1.50;1.30;;;6.10;99.90;;;;;;5141968;27;20284;-60
2024/01/31 11:40:30;;;;;;;2.10;1.83;;;6.00;99.90;;;;;;5138739;27;20213;-60
2024/01/31 11:42:57;;;;;;;3.38;2.22;;;6.00;99.90;;;;;;5138163;27;20244;-62
2024/01/31 11:45:26;;;;;;;3.40;2.38;;;6.00;99.90;;;;;;5138245;27;20195;-61
2024/01/31 11:47:54;;;;;;;3.38;2.40;;;6.10;99.90;;;;;;5137686;27;20236;-61
2024/01/31 11:50:21;;;;;;;3.88;2.83;;;6.10;99.90;;;;;;5138196;27;20224;-58
2024/01/31 11:52:48;;;;;;;2.80;2.45;;;6.10;99.90;;;;;;5138594;27;20222;-61
2024/01/31 11:55:20;;;;;;;2.03;1.92;;;6.20;99.90;;;;;;5136817;27;20714;-61
2024/01/31 11:57:49;;;;;;;3.38;2.30;;;6.20;99.90;;;;;;5136562;27;20193;-61
2024/01/31 12:00:19;;;;;;;2.60;2.38;;;6.20;99.90;;;;;;5135843;27;20203;-59
2024/01/31 12:02:46;;;;;;;4.07;2.40;;;6.20;99.90;;;;;;5136062;27;20564;-61
2024/01/31 12:05:13;;;;;;;2.17;1.98;;;6.20;99.90;;;;;;5135738;27;20210;-61
2024/01/31 12:07:40;;;;;;;3.38;1.80;;;6.30;99.90;;;;;;5136531;27;20203;-60
2024/01/31 12:10:08;;;;;;;3.35;2.63;;;6.30;99.90;;;;;;5136382;27;20205;-63
2024/01/31 12:12:41;;;;;;;4.05;2.05;;;6.30;99.90;;;;;;5136234;28;20223;-62
2024/01/31 12:15:12;;;;;;;1.95;1.63;;;6.30;99.90;;;;;;5139191;28;20203;-61
2024/01/31 12:17:39;;;;;;;2.13;1.85;;;6.20;99.90;;;;;;5136470;28;20186;-61
2024/01/31 12:20:08;;;;;;;2.50;2.22;;;6.20;99.90;;;;;;5136331;28;20663;-61
2024/01/31 12:22:36;;;;;;;1.70;1.60;;;6.20;99.90;;;;;;5136751;28;20257;-62
2024/01/31 12:25:03;;;;;;;3.17;2.22;;;6.20;99.90;;;;;;5136201;28;20194;-61
2024/01/31 12:27:29;;;;;;;3.50;2.13;;;6.20;99.90;;;;;;5136678;28;20739;-61
2024/01/31 12:29:56;;;;;;;1.70;1.60;;;6.20;99.90;;;;;;5137727;28;20206;-62
2024/01/31 12:32:25;;;;;;;2.35;2.13;;;6.20;99.90;;;;;;5137951;27;20222;-60
2024/01/31 12:34:52;;;;;;;4.18;2.45;;;6.20;99.90;;;;;;5141726;27;20240;-62
2024/01/31 12:37:19;;;;;;;1.85;1.75;;;6.20;99.90;;;;;;5141044;27;20195;-61
2024/01/31 12:39:45;;;;;;;2.90;1.65;;;6.10;99.90;;;;;;5143305;27;20203;-61
2024/01/31 12:42:12;;;;;;;2.35;1.73;;;6.10;99.90;;;;;;5142097;27;20215;-62
2024/01/31 12:44:39;;;;;;;2.42;2.00;;;6.10;99.90;;;;;;5142491;27;20205;-61
2024/01/31 12:47:06;;;;;;;2.35;2.15;;;6.10;99.90;;;;;;5140417;27;20286;-61
2024/01/31 12:49:38;;;;;;;3.08;2.13;;;6.10;99.90;;;;;;5139326;27;20213;-60
2024/01/31 12:52:05;;;;;;;2.75;2.55;;;6.10;99.90;;;;;;5141253;27;20218;-61
2024/01/31 12:54:32;;;;;;;3.05;2.70;;;6.10;99.90;;;;;;5141251;27;20300;-60
2024/01/31 12:56:59;;;;;;;7.15;3.45;;;6.20;99.90;;;;;;5139443;27;20210;-61
2024/01/31 12:59:27;;;;;;;2.60;2.33;;;6.30;99.90;;;;;;5139546;27;20195;-61